sensor_id;sensor_type;location;lat;lon;timestamp;temperature;humidity
21282;DHT22;10800;53.096;18.328;2023-03-15T00:04:48;3.80;99.90
21282;DHT22;10800;53.096;18.328;2023-03-15T00:09:53;3.80;99.90
21282;DHT22;10800;53.096;18.328;2023-03-15T00:14:59;3.90;99.90
21282;DHT22;10800;53.096;18.328;2023-03-15T00:20:04;3.90;99.90
21282;DHT22;10800;53.096;18.328;2023-03-15T00:25:11;3.70;99.90
21282;DHT22;10800;53.096;18.328;2023-03-15T00:30:17;3.70;99.90
21282;DHT22;10800;53.096;18.328;2023-03-15T00:35:23;3.80;99.90
21282;DHT22;10800;53.096;18.328;2023-03-15T00:40:29;3.70;99.90
21282;DHT22;10800;53.096;18.328;2023-03-15T00:45:35;3.60;99.90
21282;DHT22;10800;53.096;18.328;2023-03-15T00:50:40;3.60;99.90
21282;DHT22;10800;53.096;18.328;2023-03-15T00:55:45;3.60;99.90
21282;DHT22;10800;53.096;18.328;2023-03-15T01:00:52;3.60;99.90
21282;DHT22;10800;53.096;18.328;2023-03-15T01:05:57;3.40;99.90
21282;DHT22;10800;53.096;18.328;2023-03-15T01:11:08;3.40;99.90
21282;DHT22;10800;53.096;18.328;2023-03-15T01:16:13;3.40;99.90
21282;DHT22;10800;53.096;18.328;2023-03-15T01:21:21;3.30;99.90
21282;DHT22;10800;53.096;18.328;2023-03-15T01:26:26;3.20;99.90
21282;DHT22;10800;53.096;18.328;2023-03-15T01:31:31;3.20;99.90
21282;DHT22;10800;53.096;18.328;2023-03-15T01:36:37;3.20;99.90
21282;DHT22;10800;53.096;18.328;2023-03-15T01:41:42;3.10;99.90
21282;DHT22;10800;53.096;18.328;2023-03-15T01:46:48;3.00;99.90
21282;DHT22;10800;53.096;18.328;2023-03-15T01:52:01;3.00;99.90
21282;DHT22;10800;53.096;18.328;2023-03-15T01:57:20;2.90;99.90
21282;DHT22;10800;53.096;18.328;2023-03-15T02:02:26;2.90;99.90
21282;DHT22;10800;53.096;18.328;2023-03-15T02:07:32;2.80;99.90
21282;DHT22;10800;53.096;18.328;2023-03-15T02:12:47;2.80;99.90
21282;DHT22;10800;53.096;18.328;2023-03-15T02:17:52;2.70;99.90
21282;DHT22;10800;53.096;18.328;2023-03-15T02:23:06;2.70;99.90
21282;DHT22;10800;53.096;18.328;2023-03-15T02:28:13;2.70;99.90
21282;DHT22;10800;53.096;18.328;2023-03-15T02:33:43;2.70;99.90
21282;DHT22;10800;53.096;18.328;2023-03-15T02:38:32;2.60;99.90
21282;DHT22;10800;53.096;18.328;2023-03-15T02:43:39;2.50;99.90
21282;DHT22;10800;53.096;18.328;2023-03-15T02:48:46;2.50;99.90
21282;DHT22;10800;53.096;18.328;2023-03-15T02:53:52;2.40;99.90
21282;DHT22;10800;53.096;18.328;2023-03-15T02:58:59;2.30;99.90
21282;DHT22;10800;53.096;18.328;2023-03-15T03:04:05;2.30;99.90
21282;DHT22;10800;53.096;18.328;2023-03-15T03:09:11;2.30;99.90
21282;DHT22;10800;53.096;18.328;2023-03-15T03:14:16;2.30;99.90
21282;DHT22;10800;53.096;18.328;2023-03-15T03:19:22;2.20;99.90
21282;DHT22;10800;53.096;18.328;2023-03-15T03:24:29;2.20;99.90
21282;DHT22;10800;53.096;18.328;2023-03-15T03:29:37;2.30;99.90
21282;DHT22;10800;53.096;18.328;2023-03-15T03:34:42;2.40;99.90
21282;DHT22;10800;53.096;18.328;2023-03-15T03:39:49;2.50;99.90
21282;DHT22;10800;53.096;18.328;2023-03-15T03:44:54;2.50;99.90
21282;DHT22;10800;53.096;18.328;2023-03-15T03:50:00;2.50;99.90
21282;DHT22;10800;53.096;18.328;2023-03-15T03:55:05;2.40;99.90
21282;DHT22;10800;53.096;18.328;2023-03-15T04:00:14;2.40;99.90
21282;DHT22;10800;53.096;18.328;2023-03-15T04:05:19;2.30;99.90
21282;DHT22;10800;53.096;18.328;2023-03-15T04:10:25;2.30;99.90
21282;DHT22;10800;53.096;18.328;2023-03-15T04:15:30;2.30;99.90
21282;DHT22;10800;53.096;18.328;2023-03-15T04:20:36;2.20;99.90
21282;DHT22;10800;53.096;18.328;2023-03-15T04:25:41;2.10;99.90
21282;DHT22;10800;53.096;18.328;2023-03-15T04:30:48;2.00;99.90
21282;DHT22;10800;53.096;18.328;2023-03-15T04:35:53;2.00;99.90
21282;DHT22;10800;53.096;18.328;2023-03-15T04:41:00;1.80;99.90
21282;DHT22;10800;53.096;18.328;2023-03-15T04:46:08;1.80;99.90
21282;DHT22;10800;53.096;18.328;2023-03-15T04:51:14;1.70;99.90
21282;DHT22;10800;53.096;18.328;2023-03-15T04:56:19;1.70;99.90
21282;DHT22;10800;53.096;18.328;2023-03-15T05:01:29;1.60;99.90
21282;DHT22;10800;53.096;18.328;2023-03-15T05:06:35;1.60;99.90
21282;DHT22;10800;53.096;18.328;2023-03-15T05:11:40;1.70;99.90
21282;DHT22;10800;53.096;18.328;2023-03-15T05:16:45;1.80;99.90
21282;DHT22;10800;53.096;18.328;2023-03-15T05:21:52;1.90;99.90
21282;DHT22;10800;53.096;18.328;2023-03-15T05:27:03;2.00;99.90
21282;DHT22;10800;53.096;18.328;2023-03-15T05:32:08;2.00;99.90
21282;DHT22;10800;53.096;18.328;2023-03-15T05:37:14;2.00;99.90
21282;DHT22;10800;53.096;18.328;2023-03-15T05:42:19;2.20;99.90
21282;DHT22;10800;53.096;18.328;2023-03-15T05:47:26;2.20;99.90
21282;DHT22;10800;53.096;18.328;2023-03-15T05:52:31;2.20;99.90
21282;DHT22;10800;53.096;18.328;2023-03-15T05:57:36;2.20;99.90
21282;DHT22;10800;53.096;18.328;2023-03-15T06:02:43;2.20;99.90
21282;DHT22;10800;53.096;18.328;2023-03-15T06:07:49;2.20;99.90
21282;DHT22;10800;53.096;18.328;2023-03-15T06:12:54;2.50;99.90
21282;DHT22;10800;53.096;18.328;2023-03-15T06:18:00;2.70;99.90
21282;DHT22;10800;53.096;18.328;2023-03-15T06:23:05;2.60;99.90
21282;DHT22;10800;53.096;18.328;2023-03-15T06:28:10;2.60;99.90
21282;DHT22;10800;53.096;18.328;2023-03-15T06:33:16;2.60;99.90
21282;DHT22;10800;53.096;18.328;2023-03-15T06:38:21;2.60;99.90
21282;DHT22;10800;53.096;18.328;2023-03-15T06:43:27;2.60;99.90
21282;DHT22;10800;53.096;18.328;2023-03-15T06:48:33;2.60;99.90
21282;DHT22;10800;53.096;18.328;2023-03-15T06:53:38;2.60;99.90
21282;DHT22;10800;53.096;18.328;2023-03-15T06:58:43;2.70;99.90
21282;DHT22;10800;53.096;18.328;2023-03-15T07:03:49;2.80;99.90
21282;DHT22;10800;53.096;18.328;2023-03-15T07:08:54;3.00;99.90
21282;DHT22;10800;53.096;18.328;2023-03-15T07:14:00;3.20;99.90
21282;DHT22;10800;53.096;18.328;2023-03-15T07:19:05;3.40;99.90
21282;DHT22;10800;53.096;18.328;2023-03-15T07:24:10;3.90;99.90
21282;DHT22;10800;53.096;18.328;2023-03-15T07:29:15;4.10;99.90
21282;DHT22;10800;53.096;18.328;2023-03-15T07:34:21;4.20;99.90
21282;DHT22;10800;53.096;18.328;2023-03-15T07:39:26;4.30;99.90
21282;DHT22;10800;53.096;18.328;2023-03-15T07:44:34;4.20;99.90
21282;DHT22;10800;53.096;18.328;2023-03-15T07:49:39;4.10;99.90
21282;DHT22;10800;53.096;18.328;2023-03-15T07:54:45;3.90;99.90
21282;DHT22;10800;53.096;18.328;2023-03-15T07:59:50;3.80;99.90
21282;DHT22;10800;53.096;18.328;2023-03-15T08:04:56;3.70;99.90
21282;DHT22;10800;53.096;18.328;2023-03-15T08:10:03;3.80;99.90
21282;DHT22;10800;53.096;18.328;2023-03-15T08:15:10;3.70;99.90
21282;DHT22;10800;53.096;18.328;2023-03-15T08:20:17;3.70;99.90
21282;DHT22;10800;53.096;18.328;2023-03-15T08:25:24;3.80;99.90
21282;DHT22;10800;53.096;18.328;2023-03-15T08:30:29;3.90;99.90
21282;DHT22;10800;53.096;18.328;2023-03-15T08:35:34;4.00;99.90
21282;DHT22;10800;53.096;18.328;2023-03-15T08:40:39;4.10;99.90
21282;DHT22;10800;53.096;18.328;2023-03-15T08:45:47;4.10;99.90
21282;DHT22;10800;53.096;18.328;2023-03-15T08:51:03;4.10;99.90
21282;DHT22;10800;53.096;18.328;2023-03-15T08:56:08;3.90;99.90
21282;DHT22;10800;53.096;18.328;2023-03-15T09:01:20;4.10;99.90
21282;DHT22;10800;53.096;18.328;2023-03-15T09:06:25;4.20;99.90
21282;DHT22;10800;53.096;18.328;2023-03-15T09:11:30;4.40;99.90
21282;DHT22;10800;53.096;18.328;2023-03-15T09:16:36;4.40;99.90
21282;DHT22;10800;53.096;18.328;2023-03-15T09:21:57;4.40;99.90
21282;DHT22;10800;53.096;18.328;2023-03-15T09:27:04;4.30;99.90
21282;DHT22;10800;53.096;18.328;2023-03-15T09:32:09;4.30;99.90
21282;DHT22;10800;53.096;18.328;2023-03-15T09:37:14;4.20;99.90
21282;DHT22;10800;53.096;18.328;2023-03-15T09:42:31;4.10;99.90
21282;DHT22;10800;53.096;18.328;2023-03-15T09:47:41;4.10;99.90
21282;DHT22;10800;53.096;18.328;2023-03-15T09:52:50;4.20;99.90
21282;DHT22;10800;53.096;18.328;2023-03-15T09:57:59;4.20;99.90
21282;DHT22;10800;53.096;18.328;2023-03-15T10:03:08;4.30;99.90
21282;DHT22;10800;53.096;18.328;2023-03-15T10:08:15;4.40;99.90
21282;DHT22;10800;53.096;18.328;2023-03-15T10:13:30;4.50;99.90
21282;DHT22;10800;53.096;18.328;2023-03-15T10:18:53;4.40;99.90
21282;DHT22;10800;53.096;18.328;2023-03-15T10:23:58;4.40;99.90
21282;DHT22;10800;53.096;18.328;2023-03-15T10:29:09;4.40;99.90
21282;DHT22;10800;53.096;18.328;2023-03-15T10:34:14;4.50;99.90
21282;DHT22;10800;53.096;18.328;2023-03-15T10:39:21;4.30;99.90
21282;DHT22;10800;53.096;18.328;2023-03-15T10:44:27;4.20;99.90
21282;DHT22;10800;53.096;18.328;2023-03-15T10:49:37;4.20;99.90
21282;DHT22;10800;53.096;18.328;2023-03-15T10:54:43;4.30;99.90
21282;DHT22;10800;53.096;18.328;2023-03-15T11:00:02;4.40;99.90
21282;DHT22;10800;53.096;18.328;2023-03-15T11:10:22;4.50;99.90
21282;DHT22;10800;53.096;18.328;2023-03-15T11:15:28;4.60;99.90
21282;DHT22;10800;53.096;18.328;2023-03-15T11:20:38;4.70;99.90
21282;DHT22;10800;53.096;18.328;2023-03-15T11:25:44;4.60;99.90
21282;DHT22;10800;53.096;18.328;2023-03-15T11:30:50;4.80;99.90
21282;DHT22;10800;53.096;18.328;2023-03-15T11:35:59;4.80;99.90
21282;DHT22;10800;53.096;18.328;2023-03-15T11:41:26;4.80;99.90
21282;DHT22;10800;53.096;18.328;2023-03-15T11:46:45;5.00;99.90
21282;DHT22;10800;53.096;18.328;2023-03-15T11:51:46;5.10;99.90
21282;DHT22;10800;53.096;18.328;2023-03-15T11:56:53;5.50;99.90
21282;DHT22;10800;53.096;18.328;2023-03-15T12:17:55;6.60;99.90
21282;DHT22;10800;53.096;18.328;2023-03-15T12:28:38;7.80;99.30
21282;DHT22;10800;53.096;18.328;2023-03-15T12:33:54;8.00;97.50
21282;DHT22;10800;53.096;18.328;2023-03-15T12:39:48;8.00;95.90
21282;DHT22;10800;53.096;18.328;2023-03-15T12:49:43;6.60;93.50
21282;DHT22;10800;53.096;18.328;2023-03-15T12:55:04;6.30;95.00
21282;DHT22;10800;53.096;18.328;2023-03-15T13:00:25;6.60;94.80
21282;DHT22;10800;53.096;18.328;2023-03-15T13:05:40;6.40;94.70
21282;DHT22;10800;53.096;18.328;2023-03-15T13:21:38;7.40;94.40
21282;DHT22;10800;53.096;18.328;2023-03-15T13:26:54;7.60;91.90
21282;DHT22;10800;53.096;18.328;2023-03-15T13:32:11;7.90;91.30
21282;DHT22;10800;53.096;18.328;2023-03-15T13:37:22;7.80;89.70
21282;DHT22;10800;53.096;18.328;2023-03-15T13:42:37;7.40;88.90
21282;DHT22;10800;53.096;18.328;2023-03-15T13:47:41;7.60;86.60
21282;DHT22;10800;53.096;18.328;2023-03-15T13:52:47;7.40;85.30
21282;DHT22;10800;53.096;18.328;2023-03-15T13:57:56;7.10;85.30
21282;DHT22;10800;53.096;18.328;2023-03-15T14:03:06;7.30;87.50
21282;DHT22;10800;53.096;18.328;2023-03-15T14:08:29;7.30;85.10
21282;DHT22;10800;53.096;18.328;2023-03-15T14:13:52;7.60;86.50
21282;DHT22;10800;53.096;18.328;2023-03-15T14:24:37;7.40;80.60
21282;DHT22;10800;53.096;18.328;2023-03-15T14:29:52;7.20;80.50
21282;DHT22;10800;53.096;18.328;2023-03-15T14:35:16;6.90;83.30
21282;DHT22;10800;53.096;18.328;2023-03-15T14:40:21;6.40;86.10
21282;DHT22;10800;53.096;18.328;2023-03-15T14:45:27;6.20;87.50
21282;DHT22;10800;53.096;18.328;2023-03-15T14:50:36;6.10;88.10
21282;DHT22;10800;53.096;18.328;2023-03-15T14:55:42;6.10;90.30
21282;DHT22;10800;53.096;18.328;2023-03-15T15:00:49;5.90;90.30
21282;DHT22;10800;53.096;18.328;2023-03-15T15:05:57;5.80;91.20
21282;DHT22;10800;53.096;18.328;2023-03-15T15:11:03;5.70;92.10
21282;DHT22;10800;53.096;18.328;2023-03-15T15:16:08;5.60;89.20
21282;DHT22;10800;53.096;18.328;2023-03-15T15:21:20;5.50;88.60
21282;DHT22;10800;53.096;18.328;2023-03-15T15:26:27;5.70;86.70
21282;DHT22;10800;53.096;18.328;2023-03-15T15:31:33;5.80;83.50
21282;DHT22;10800;53.096;18.328;2023-03-15T15:36:42;5.90;82.00
21282;DHT22;10800;53.096;18.328;2023-03-15T15:41:48;5.90;78.50
21282;DHT22;10800;53.096;18.328;2023-03-15T15:46:54;5.90;75.20
21282;DHT22;10800;53.096;18.328;2023-03-15T15:52:00;5.80;75.00
21282;DHT22;10800;53.096;18.328;2023-03-15T15:57:09;5.70;74.70
21282;DHT22;10800;53.096;18.328;2023-03-15T16:02:14;5.60;75.40
21282;DHT22;10800;53.096;18.328;2023-03-15T16:07:23;5.60;74.40
21282;DHT22;10800;53.096;18.328;2023-03-15T16:12:28;5.50;74.50
21282;DHT22;10800;53.096;18.328;2023-03-15T16:17:35;5.40;76.60
21282;DHT22;10800;53.096;18.328;2023-03-15T16:22:46;5.30;77.30
21282;DHT22;10800;53.096;18.328;2023-03-15T16:27:54;5.20;78.80
21282;DHT22;10800;53.096;18.328;2023-03-15T16:33:00;5.00;80.90
21282;DHT22;10800;53.096;18.328;2023-03-15T16:38:07;4.80;82.00
21282;DHT22;10800;53.096;18.328;2023-03-15T16:43:12;4.60;83.10
21282;DHT22;10800;53.096;18.328;2023-03-15T16:48:18;4.40;84.20
21282;DHT22;10800;53.096;18.328;2023-03-15T16:53:24;4.30;84.90
21282;DHT22;10800;53.096;18.328;2023-03-15T16:58:30;4.20;84.80
21282;DHT22;10800;53.096;18.328;2023-03-15T17:03:36;4.20;85.80
21282;DHT22;10800;53.096;18.328;2023-03-15T17:08:42;4.20;85.90
21282;DHT22;10800;53.096;18.328;2023-03-15T17:13:47;4.10;85.70
21282;DHT22;10800;53.096;18.328;2023-03-15T17:18:52;4.10;87.90
21282;DHT22;10800;53.096;18.328;2023-03-15T17:23:57;4.00;89.80
21282;DHT22;10800;53.096;18.328;2023-03-15T17:29:03;3.90;90.60
21282;DHT22;10800;53.096;18.328;2023-03-15T17:34:09;3.70;91.10
21282;DHT22;10800;53.096;18.328;2023-03-15T17:39:15;3.60;91.90
21282;DHT22;10800;53.096;18.328;2023-03-15T17:44:21;3.50;92.30
21282;DHT22;10800;53.096;18.328;2023-03-15T17:49:26;3.30;92.80
21282;DHT22;10800;53.096;18.328;2023-03-15T17:54:32;3.20;93.50
21282;DHT22;10800;53.096;18.328;2023-03-15T17:59:38;3.10;94.20
21282;DHT22;10800;53.096;18.328;2023-03-15T18:04:44;2.90;94.60
21282;DHT22;10800;53.096;18.328;2023-03-15T18:09:49;2.70;95.60
21282;DHT22;10800;53.096;18.328;2023-03-15T18:14:55;2.50;96.30
21282;DHT22;10800;53.096;18.328;2023-03-15T18:20:00;2.30;98.00
21282;DHT22;10800;53.096;18.328;2023-03-15T18:25:06;2.10;99.30
21282;DHT22;10800;53.096;18.328;2023-03-15T18:30:13;1.90;99.90
21282;DHT22;10800;53.096;18.328;2023-03-15T18:35:22;1.70;99.90
21282;DHT22;10800;53.096;18.328;2023-03-15T18:40:30;1.60;99.90
21282;DHT22;10800;53.096;18.328;2023-03-15T18:45:36;1.60;99.90
21282;DHT22;10800;53.096;18.328;2023-03-15T18:50:44;1.40;99.90
21282;DHT22;10800;53.096;18.328;2023-03-15T18:55:49;1.30;99.90
21282;DHT22;10800;53.096;18.328;2023-03-15T19:00:55;1.10;99.90
21282;DHT22;10800;53.096;18.328;2023-03-15T19:06:05;1.00;99.90
21282;DHT22;10800;53.096;18.328;2023-03-15T19:11:10;0.90;99.90
21282;DHT22;10800;53.096;18.328;2023-03-15T19:16:19;0.80;99.90
21282;DHT22;10800;53.096;18.328;2023-03-15T19:21:25;0.70;99.90
21282;DHT22;10800;53.096;18.328;2023-03-15T19:26:30;0.60;99.90
21282;DHT22;10800;53.096;18.328;2023-03-15T19:31:36;0.60;99.90
21282;DHT22;10800;53.096;18.328;2023-03-15T19:36:42;0.50;99.90
21282;DHT22;10800;53.096;18.328;2023-03-15T19:41:47;0.40;99.90
21282;DHT22;10800;53.096;18.328;2023-03-15T19:46:53;0.30;99.90
21282;DHT22;10800;53.096;18.328;2023-03-15T19:52:01;0.30;99.90
21282;DHT22;10800;53.096;18.328;2023-03-15T19:57:06;0.30;99.90
21282;DHT22;10800;53.096;18.328;2023-03-15T20:02:12;0.20;99.90
21282;DHT22;10800;53.096;18.328;2023-03-15T20:07:18;0.20;99.90
21282;DHT22;10800;53.096;18.328;2023-03-15T20:12:23;0.10;99.90
21282;DHT22;10800;53.096;18.328;2023-03-15T20:17:29;0.00;99.90
21282;DHT22;10800;53.096;18.328;2023-03-15T20:22:34;-0.10;99.90
21282;DHT22;10800;53.096;18.328;2023-03-15T20:27:41;-0.20;99.90
21282;DHT22;10800;53.096;18.328;2023-03-15T20:32:50;-0.30;99.90
21282;DHT22;10800;53.096;18.328;2023-03-15T20:37:55;-0.40;99.90
21282;DHT22;10800;53.096;18.328;2023-03-15T20:43:02;-0.40;99.90
21282;DHT22;10800;53.096;18.328;2023-03-15T20:48:09;-0.50;99.90
21282;DHT22;10800;53.096;18.328;2023-03-15T20:53:15;-0.60;99.90
21282;DHT22;10800;53.096;18.328;2023-03-15T20:58:21;-0.60;99.90
21282;DHT22;10800;53.096;18.328;2023-03-15T21:03:26;-0.70;99.90
21282;DHT22;10800;53.096;18.328;2023-03-15T21:08:34;-0.70;99.90
21282;DHT22;10800;53.096;18.328;2023-03-15T21:13:40;-0.70;99.90
21282;DHT22;10800;53.096;18.328;2023-03-15T21:18:45;-0.70;99.90
21282;DHT22;10800;53.096;18.328;2023-03-15T21:23:52;-0.70;99.90
21282;DHT22;10800;53.096;18.328;2023-03-15T21:28:59;-0.60;99.90
21282;DHT22;10800;53.096;18.328;2023-03-15T21:34:05;-0.60;99.90
21282;DHT22;10800;53.096;18.328;2023-03-15T21:39:10;-0.50;99.90
21282;DHT22;10800;53.096;18.328;2023-03-15T21:44:16;-0.50;99.90
21282;DHT22;10800;53.096;18.328;2023-03-15T21:49:21;-0.60;99.90
21282;DHT22;10800;53.096;18.328;2023-03-15T21:54:27;-0.60;99.90
21282;DHT22;10800;53.096;18.328;2023-03-15T21:59:32;-0.60;99.90
21282;DHT22;10800;53.096;18.328;2023-03-15T22:04:38;-0.60;99.90
21282;DHT22;10800;53.096;18.328;2023-03-15T22:09:45;-0.60;99.90
21282;DHT22;10800;53.096;18.328;2023-03-15T22:14:51;-0.70;99.90
21282;DHT22;10800;53.096;18.328;2023-03-15T22:19:58;-0.70;99.90
21282;DHT22;10800;53.096;18.328;2023-03-15T22:25:03;-0.70;99.90
21282;DHT22;10800;53.096;18.328;2023-03-15T22:30:12;-0.60;99.90
21282;DHT22;10800;53.096;18.328;2023-03-15T22:35:18;-0.70;99.90
21282;DHT22;10800;53.096;18.328;2023-03-15T22:40:26;-0.70;99.90
21282;DHT22;10800;53.096;18.328;2023-03-15T22:45:33;-0.80;99.90
21282;DHT22;10800;53.096;18.328;2023-03-15T22:50:38;-0.90;99.90
21282;DHT22;10800;53.096;18.328;2023-03-15T22:55:44;-1.00;99.90
21282;DHT22;10800;53.096;18.328;2023-03-15T23:00:49;-1.00;99.90
21282;DHT22;10800;53.096;18.328;2023-03-15T23:05:55;-1.10;99.90
21282;DHT22;10800;53.096;18.328;2023-03-15T23:11:01;-1.10;99.90
21282;DHT22;10800;53.096;18.328;2023-03-15T23:16:07;-1.20;99.90
21282;DHT22;10800;53.096;18.328;2023-03-15T23:21:14;-1.20;99.90
21282;DHT22;10800;53.096;18.328;2023-03-15T23:26:19;-1.30;99.90
21282;DHT22;10800;53.096;18.328;2023-03-15T23:31:47;-1.40;99.90
21282;DHT22;10800;53.096;18.328;2023-03-15T23:36:53;-1.40;99.90
21282;DHT22;10800;53.096;18.328;2023-03-15T23:41:58;-1.50;99.90
21282;DHT22;10800;53.096;18.328;2023-03-15T23:47:04;-1.50;99.90
21282;DHT22;10800;53.096;18.328;2023-03-15T23:52:09;-1.60;99.90
21282;DHT22;10800;53.096;18.328;2023-03-15T23:57:15;-1.60;99.90
